sensor_id;sensor_type;location;lat;lon;timestamp;pressure;altitude;pressure_sealevel;temperature;humidity
73103;BME280;61294;65.988;29.172;2023-02-13T00:02:06;96412.16;;;-5.09;100.00
73103;BME280;61294;65.988;29.172;2023-02-13T00:04:32;96395.81;;;-5.14;100.00
73103;BME280;61294;65.988;29.172;2023-02-13T00:06:59;96424.16;;;-5.10;100.00
73103;BME280;61294;65.988;29.172;2023-02-13T00:09:25;96419.75;;;-5.15;100.00
73103;BME280;61294;65.988;29.172;2023-02-13T00:11:50;96391.28;;;-5.26;100.00
73103;BME280;61294;65.988;29.172;2023-02-13T00:14:16;96389.56;;;-5.27;100.00
73103;BME280;61294;65.988;29.172;2023-02-13T00:16:42;96396.63;;;-5.17;100.00
73103;BME280;61294;65.988;29.172;2023-02-13T00:19:08;96414.00;;;-5.04;100.00
73103;BME280;61294;65.988;29.172;2023-02-13T00:21:34;96413.94;;;-5.07;100.00
73103;BME280;61294;65.988;29.172;2023-02-13T00:23:59;96417.38;;;-5.06;100.00
73103;BME280;61294;65.988;29.172;2023-02-13T00:26:25;96412.25;;;-5.05;100.00
73103;BME280;61294;65.988;29.172;2023-02-13T00:28:51;96402.84;;;-5.06;100.00
73103;BME280;61294;65.988;29.172;2023-02-13T00:31:19;96413.13;;;-5.06;100.00
73103;BME280;61294;65.988;29.172;2023-02-13T00:33:45;96383.94;;;-5.09;100.00
73103;BME280;61294;65.988;29.172;2023-02-13T00:36:17;96394.31;;;-5.03;100.00
73103;BME280;61294;65.988;29.172;2023-02-13T00:38:44;96400.34;;;-5.03;100.00
73103;BME280;61294;65.988;29.172;2023-02-13T00:41:10;96407.25;;;-5.00;100.00
73103;BME280;61294;65.988;29.172;2023-02-13T00:43:36;96408.88;;;-5.04;100.00
73103;BME280;61294;65.988;29.172;2023-02-13T00:46:02;96397.75;;;-5.04;100.00
73103;BME280;61294;65.988;29.172;2023-02-13T00:48:30;96405.44;;;-5.04;100.00
73103;BME280;61294;65.988;29.172;2023-02-13T00:50:56;96390.50;;;-5.24;100.00
73103;BME280;61294;65.988;29.172;2023-02-13T00:53:23;96379.38;;;-5.24;100.00
73103;BME280;61294;65.988;29.172;2023-02-13T00:55:49;96377.59;;;-5.27;100.00
73103;BME280;61294;65.988;29.172;2023-02-13T00:58:16;96394.13;;;-5.14;100.00
73103;BME280;61294;65.988;29.172;2023-02-13T01:00:43;96368.16;;;-5.28;100.00
73103;BME280;61294;65.988;29.172;2023-02-13T01:03:09;96375.16;;;-5.21;100.00
73103;BME280;61294;65.988;29.172;2023-02-13T01:05:35;96376.13;;;-5.15;100.00
73103;BME280;61294;65.988;29.172;2023-02-13T01:08:01;96375.41;;;-5.08;100.00
73103;BME280;61294;65.988;29.172;2023-02-13T01:10:27;96378.84;;;-5.06;100.00
73103;BME280;61294;65.988;29.172;2023-02-13T01:12:53;96365.16;;;-5.07;100.00
73103;BME280;61294;65.988;29.172;2023-02-13T01:15:19;96384.88;;;-5.06;100.00
73103;BME280;61294;65.988;29.172;2023-02-13T01:17:45;96375.47;;;-5.05;100.00
73103;BME280;61294;65.988;29.172;2023-02-13T01:20:12;96372.09;;;-5.03;100.00
73103;BME280;61294;65.988;29.172;2023-02-13T01:22:38;96370.53;;;-4.94;100.00
73103;BME280;61294;65.988;29.172;2023-02-13T01:25:05;96372.88;;;-5.05;100.00
73103;BME280;61294;65.988;29.172;2023-02-13T01:27:31;96367.06;;;-4.96;100.00
73103;BME280;61294;65.988;29.172;2023-02-13T01:29:58;96361.03;;;-4.98;100.00
73103;BME280;61294;65.988;29.172;2023-02-13T01:32:24;96366.34;;;-4.89;100.00
73103;BME280;61294;65.988;29.172;2023-02-13T01:34:50;96329.38;;;-4.97;100.00
73103;BME280;61294;65.988;29.172;2023-02-13T01:37:15;96348.38;;;-4.88;100.00
73103;BME280;61294;65.988;29.172;2023-02-13T01:39:41;96350.09;;;-4.88;100.00
73103;BME280;61294;65.988;29.172;2023-02-13T01:42:23;96338.09;;;-4.89;100.00
73103;BME280;61294;65.988;29.172;2023-02-13T01:44:54;96350.84;;;-4.95;100.00
73103;BME280;61294;65.988;29.172;2023-02-13T01:47:27;96339.88;;;-4.85;100.00
73103;BME280;61294;65.988;29.172;2023-02-13T01:50:09;96349.13;;;-4.95;100.00
73103;BME280;61294;65.988;29.172;2023-02-13T01:52:38;96326.88;;;-4.96;100.00
73103;BME280;61294;65.988;29.172;2023-02-13T01:55:08;96327.47;;;-5.09;100.00
73103;BME280;61294;65.988;29.172;2023-02-13T01:57:34;96356.84;;;-4.93;100.00
73103;BME280;61294;65.988;29.172;2023-02-13T02:00:07;96317.44;;;-4.97;100.00
73103;BME280;61294;65.988;29.172;2023-02-13T02:02:36;96346.13;;;-4.71;100.00
73103;BME280;61294;65.988;29.172;2023-02-13T02:05:04;96340.25;;;-4.63;100.00
73103;BME280;61294;65.988;29.172;2023-02-13T02:07:31;96342.94;;;-4.59;100.00
73103;BME280;61294;65.988;29.172;2023-02-13T02:10:06;96359.25;;;-4.55;100.00
73103;BME280;61294;65.988;29.172;2023-02-13T02:12:59;96334.31;;;-4.61;100.00
73103;BME280;61294;65.988;29.172;2023-02-13T02:15:28;96362.78;;;-4.50;100.00
73103;BME280;61294;65.988;29.172;2023-02-13T02:17:54;96359.44;;;-4.44;100.00
73103;BME280;61294;65.988;29.172;2023-02-13T02:20:38;96345.59;;;-4.53;100.00
73103;BME280;61294;65.988;29.172;2023-02-13T02:37:17;96328.22;;;-4.66;100.00
73103;BME280;61294;65.988;29.172;2023-02-13T02:46:02;96326.47;;;-4.70;100.00
73103;BME280;61294;65.988;29.172;2023-02-13T02:51:50;96322.50;;;-4.51;100.00
73103;BME280;61294;65.988;29.172;2023-02-13T02:54:36;96334.56;;;-4.45;100.00
73103;BME280;61294;65.988;29.172;2023-02-13T03:01:06;96344.22;;;-4.32;100.00
73103;BME280;61294;65.988;29.172;2023-02-13T03:03:54;96328.91;;;-4.26;100.00
73103;BME280;61294;65.988;29.172;2023-02-13T03:06:56;96338.47;;;-4.17;100.00
73103;BME280;61294;65.988;29.172;2023-02-13T03:09:51;96332.56;;;-4.11;100.00
73103;BME280;61294;65.988;29.172;2023-02-13T03:15:38;96347.81;;;-4.22;100.00
73103;BME280;61294;65.988;29.172;2023-02-13T03:18:24;96344.41;;;-4.21;100.00
73103;BME280;61294;65.988;29.172;2023-02-13T03:21:55;96329.16;;;-4.10;100.00
73103;BME280;61294;65.988;29.172;2023-02-13T03:27:10;96319.75;;;-4.08;100.00
73103;BME280;61294;65.988;29.172;2023-02-13T03:29:48;96330.03;;;-4.08;100.00
73103;BME280;61294;65.988;29.172;2023-02-13T03:32:42;96326.59;;;-4.09;100.00
73103;BME280;61294;65.988;29.172;2023-02-13T03:38:30;96310.44;;;-4.00;100.00
73103;BME280;61294;65.988;29.172;2023-02-13T03:41:03;96341.47;;;-3.88;100.00
73103;BME280;61294;65.988;29.172;2023-02-13T03:46:36;96335.41;;;-3.91;100.00
73103;BME280;61294;65.988;29.172;2023-02-13T03:49:05;96304.41;;;-4.01;100.00
73103;BME280;61294;65.988;29.172;2023-02-13T03:51:52;96325.16;;;-3.88;100.00
73103;BME280;61294;65.988;29.172;2023-02-13T03:54:27;96333.81;;;-3.85;100.00
73103;BME280;61294;65.988;29.172;2023-02-13T03:57:19;96311.38;;;-3.93;100.00
73103;BME280;61294;65.988;29.172;2023-02-13T04:00:09;96339.88;;;-3.78;100.00
73103;BME280;61294;65.988;29.172;2023-02-13T04:02:41;96314.84;;;-3.91;100.00
73103;BME280;61294;65.988;29.172;2023-02-13T04:05:17;96345.00;;;-3.79;100.00
73103;BME280;61294;65.988;29.172;2023-02-13T04:07:45;96350.41;;;-3.61;100.00
73103;BME280;61294;65.988;29.172;2023-02-13T04:10:13;96344.38;;;-3.65;100.00
73103;BME280;61294;65.988;29.172;2023-02-13T04:13:17;96314.91;;;-3.85;100.00
73103;BME280;61294;65.988;29.172;2023-02-13T04:16:18;96352.19;;;-3.57;100.00
73103;BME280;61294;65.988;29.172;2023-02-13T04:18:37;96329.78;;;-3.66;100.00
73103;BME280;61294;65.988;29.172;2023-02-13T04:21:05;96338.47;;;-3.56;100.00
73103;BME280;61294;65.988;29.172;2023-02-13T04:23:31;96331.59;;;-3.57;100.00
73103;BME280;61294;65.988;29.172;2023-02-13T04:26:03;96296.25;;;-3.73;100.00
73103;BME280;61294;65.988;29.172;2023-02-13T04:28:30;96281.50;;;-3.84;100.00
73103;BME280;61294;65.988;29.172;2023-02-13T04:30:56;96312.69;;;-3.60;100.00
73103;BME280;61294;65.988;29.172;2023-02-13T04:33:22;96306.66;;;-3.62;100.00
73103;BME280;61294;65.988;29.172;2023-02-13T04:35:48;96327.19;;;-3.67;100.00
73103;BME280;61294;65.988;29.172;2023-02-13T04:38:14;96320.28;;;-3.70;100.00
73103;BME280;61294;65.988;29.172;2023-02-13T04:40:40;96290.09;;;-3.85;100.00
73103;BME280;61294;65.988;29.172;2023-02-13T04:43:05;96310.00;;;-3.68;100.00
73103;BME280;61294;65.988;29.172;2023-02-13T04:45:31;96297.94;;;-3.72;100.00
73103;BME280;61294;65.988;29.172;2023-02-13T04:47:57;96300.50;;;-3.74;100.00
73103;BME280;61294;65.988;29.172;2023-02-13T04:50:24;96288.44;;;-3.76;100.00
73103;BME280;61294;65.988;29.172;2023-02-13T04:52:54;96299.50;;;-3.84;100.00
73103;BME280;61294;65.988;29.172;2023-02-13T04:55:22;96313.31;;;-3.77;100.00
73103;BME280;61294;65.988;29.172;2023-02-13T04:57:51;96304.81;;;-3.73;100.00
73103;BME280;61294;65.988;29.172;2023-02-13T05:00:17;96297.84;;;-3.82;100.00
73103;BME280;61294;65.988;29.172;2023-02-13T05:02:43;96295.25;;;-3.82;100.00
73103;BME280;61294;65.988;29.172;2023-02-13T05:05:09;96294.31;;;-3.87;100.00
73103;BME280;61294;65.988;29.172;2023-02-13T05:07:35;96287.41;;;-3.91;100.00
73103;BME280;61294;65.988;29.172;2023-02-13T05:10:00;96283.13;;;-3.92;100.00
73103;BME280;61294;65.988;29.172;2023-02-13T05:12:26;96264.19;;;-3.97;100.00
73103;BME280;61294;65.988;29.172;2023-02-13T05:14:52;96294.47;;;-3.77;100.00
73103;BME280;61294;65.988;29.172;2023-02-13T05:17:17;96262.66;;;-3.83;100.00
73103;BME280;61294;65.988;29.172;2023-02-13T05:19:43;96252.28;;;-3.89;100.00
73103;BME280;61294;65.988;29.172;2023-02-13T05:22:09;96252.25;;;-3.92;100.00
73103;BME280;61294;65.988;29.172;2023-02-13T05:24:54;96275.66;;;-3.72;100.00
73103;BME280;61294;65.988;29.172;2023-02-13T05:27:20;96261.13;;;-3.67;100.00
73103;BME280;61294;65.988;29.172;2023-02-13T05:29:46;96268.88;;;-3.65;100.00
73103;BME280;61294;65.988;29.172;2023-02-13T05:32:11;96262.84;;;-3.67;100.00
73103;BME280;61294;65.988;29.172;2023-02-13T05:34:37;96254.97;;;-3.79;100.00
73103;BME280;61294;65.988;29.172;2023-02-13T05:37:03;96239.53;;;-3.79;100.00
73103;BME280;61294;65.988;29.172;2023-02-13T05:39:28;96259.44;;;-3.66;100.00
73103;BME280;61294;65.988;29.172;2023-02-13T05:41:54;96271.41;;;-3.68;100.00
73103;BME280;61294;65.988;29.172;2023-02-13T05:44:20;96264.66;;;-3.61;100.00
73103;BME280;61294;65.988;29.172;2023-02-13T05:46:46;96247.31;;;-3.75;100.00
73103;BME280;61294;65.988;29.172;2023-02-13T05:49:13;96262.81;;;-3.70;100.00
73103;BME280;61294;65.988;29.172;2023-02-13T05:51:40;96273.19;;;-3.62;100.00
73103;BME280;61294;65.988;29.172;2023-02-13T05:54:07;96249.94;;;-3.73;100.00
73103;BME280;61294;65.988;29.172;2023-02-13T05:56:33;96279.31;;;-3.54;100.00
73103;BME280;61294;65.988;29.172;2023-02-13T05:58:58;96276.75;;;-3.54;100.00
73103;BME280;61294;65.988;29.172;2023-02-13T06:01:24;96242.28;;;-3.67;100.00
73103;BME280;61294;65.988;29.172;2023-02-13T06:03:50;96269.06;;;-3.50;100.00
73103;BME280;61294;65.988;29.172;2023-02-13T06:06:16;96264.81;;;-3.49;100.00
73103;BME280;61294;65.988;29.172;2023-02-13T06:08:43;96265.69;;;-3.45;100.00
73103;BME280;61294;65.988;29.172;2023-02-13T06:11:09;96243.28;;;-3.56;100.00
73103;BME280;61294;65.988;29.172;2023-02-13T06:13:35;96282.06;;;-3.40;100.00
73103;BME280;61294;65.988;29.172;2023-02-13T06:16:01;96257.03;;;-3.51;100.00
73103;BME280;61294;65.988;29.172;2023-02-13T06:18:26;96245.09;;;-3.47;100.00
73103;BME280;61294;65.988;29.172;2023-02-13T06:20:52;96270.97;;;-3.35;100.00
73103;BME280;61294;65.988;29.172;2023-02-13T06:23:18;96256.31;;;-3.40;100.00
73103;BME280;61294;65.988;29.172;2023-02-13T06:25:44;96271.03;;;-3.28;100.00
73103;BME280;61294;65.988;29.172;2023-02-13T06:28:09;96269.31;;;-3.26;100.00
73103;BME280;61294;65.988;29.172;2023-02-13T06:30:35;96241.75;;;-3.38;100.00
73103;BME280;61294;65.988;29.172;2023-02-13T06:33:01;96267.66;;;-3.23;100.00
73103;BME280;61294;65.988;29.172;2023-02-13T06:35:27;96221.91;;;-3.47;100.00
73103;BME280;61294;65.988;29.172;2023-02-13T06:37:52;96240.13;;;-3.30;100.00
73103;BME280;61294;65.988;29.172;2023-02-13T06:40:18;96261.72;;;-3.16;100.00
73103;BME280;61294;65.988;29.172;2023-02-13T06:42:44;96235.00;;;-3.27;100.00
73103;BME280;61294;65.988;29.172;2023-02-13T06:45:11;96245.41;;;-3.18;100.00
73103;BME280;61294;65.988;29.172;2023-02-13T06:47:44;96207.56;;;-3.25;100.00
73103;BME280;61294;65.988;29.172;2023-02-13T06:50:12;96267.81;;;-3.07;100.00
73103;BME280;61294;65.988;29.172;2023-02-13T06:52:38;96235.84;;;-3.26;100.00
73103;BME280;61294;65.988;29.172;2023-02-13T06:55:04;96249.75;;;-3.12;100.00
73103;BME280;61294;65.988;29.172;2023-02-13T06:57:31;96249.63;;;-3.23;100.00
73103;BME280;61294;65.988;29.172;2023-02-13T06:59:59;96243.63;;;-3.25;100.00
73103;BME280;61294;65.988;29.172;2023-02-13T07:02:24;96233.31;;;-3.25;100.00
73103;BME280;61294;65.988;29.172;2023-02-13T07:04:52;96218.59;;;-3.37;100.00
73103;BME280;61294;65.988;29.172;2023-02-13T07:07:17;96222.09;;;-3.30;100.00
73103;BME280;61294;65.988;29.172;2023-02-13T07:09:43;96232.38;;;-3.33;100.00
73103;BME280;61294;65.988;29.172;2023-02-13T07:12:09;96222.88;;;-3.37;100.00
73103;BME280;61294;65.988;29.172;2023-02-13T07:14:34;96220.47;;;-3.22;100.00
73103;BME280;61294;65.988;29.172;2023-02-13T07:17:00;96221.28;;;-3.26;100.00
73103;BME280;61294;65.988;29.172;2023-02-13T07:19:26;96247.19;;;-3.10;100.00
73103;BME280;61294;65.988;29.172;2023-02-13T07:21:52;96224.81;;;-3.18;100.00
73103;BME280;61294;65.988;29.172;2023-02-13T07:24:18;96206.69;;;-3.27;100.00
73103;BME280;61294;65.988;29.172;2023-02-13T07:26:44;96222.19;;;-3.19;100.00
73103;BME280;61294;65.988;29.172;2023-02-13T07:29:10;96206.66;;;-3.28;100.00
73103;BME280;61294;65.988;29.172;2023-02-13T07:31:35;96220.53;;;-3.16;100.00
73103;BME280;61294;65.988;29.172;2023-02-13T07:34:01;96243.00;;;-2.99;100.00
73103;BME280;61294;65.988;29.172;2023-02-13T07:36:27;96231.84;;;-2.98;100.00
73103;BME280;61294;65.988;29.172;2023-02-13T07:38:53;96246.59;;;-2.85;100.00
73103;BME280;61294;65.988;29.172;2023-02-13T07:41:19;96244.84;;;-2.86;100.00
73103;BME280;61294;65.988;29.172;2023-02-13T07:43:44;96246.59;;;-2.83;100.00
73103;BME280;61294;65.988;29.172;2023-02-13T07:46:10;96238.84;;;-2.85;100.00
73103;BME280;61294;65.988;29.172;2023-02-13T07:48:36;96234.50;;;-2.92;100.00
73103;BME280;61294;65.988;29.172;2023-02-13T07:51:03;96218.06;;;-3.05;100.00
73103;BME280;61294;65.988;29.172;2023-02-13T07:53:30;96236.28;;;-2.85;100.00
73103;BME280;61294;65.988;29.172;2023-02-13T07:55:55;96240.56;;;-2.84;100.00
73103;BME280;61294;65.988;29.172;2023-02-13T07:58:21;96232.75;;;-2.95;100.00
73103;BME280;61294;65.988;29.172;2023-02-13T08:00:47;96256.03;;;-2.82;100.00
73103;BME280;61294;65.988;29.172;2023-02-13T08:03:13;96216.41;;;-2.95;100.00
73103;BME280;61294;65.988;29.172;2023-02-13T08:05:46;96229.38;;;-2.87;100.00
73103;BME280;61294;65.988;29.172;2023-02-13T08:08:12;96248.25;;;-2.87;100.00
73103;BME280;61294;65.988;29.172;2023-02-13T08:10:40;96223.25;;;-3.02;100.00
73103;BME280;61294;65.988;29.172;2023-02-13T08:13:26;96260.19;;;-2.95;100.00
73103;BME280;61294;65.988;29.172;2023-02-13T08:15:51;96248.19;;;-2.95;100.00
73103;BME280;61294;65.988;29.172;2023-02-13T08:18:17;96261.94;;;-2.94;100.00
73103;BME280;61294;65.988;29.172;2023-02-13T08:20:43;96229.97;;;-3.16;100.00
73103;BME280;61294;65.988;29.172;2023-02-13T08:23:09;96236.94;;;-3.04;100.00
73103;BME280;61294;65.988;29.172;2023-02-13T08:25:37;96232.63;;;-3.05;100.00
73103;BME280;61294;65.988;29.172;2023-02-13T08:28:03;96230.94;;;-3.05;100.00
73103;BME280;61294;65.988;29.172;2023-02-13T08:30:29;96260.25;;;-2.92;100.00
73103;BME280;61294;65.988;29.172;2023-02-13T08:32:55;96266.28;;;-2.90;100.00
73103;BME280;61294;65.988;29.172;2023-02-13T08:35:22;96237.00;;;-2.97;100.00
73103;BME280;61294;65.988;29.172;2023-02-13T08:37:51;96250.00;;;-2.86;100.00
73103;BME280;61294;65.988;29.172;2023-02-13T08:40:17;96249.16;;;-2.86;100.00
73103;BME280;61294;65.988;29.172;2023-02-13T08:42:43;96272.41;;;-2.79;100.00
73103;BME280;61294;65.988;29.172;2023-02-13T08:45:09;96237.06;;;-2.92;100.00
73103;BME280;61294;65.988;29.172;2023-02-13T08:47:36;96253.50;;;-2.79;100.00
73103;BME280;61294;65.988;29.172;2023-02-13T08:50:03;96263.84;;;-2.73;100.00
73103;BME280;61294;65.988;29.172;2023-02-13T08:52:29;96257.84;;;-2.72;100.00
73103;BME280;61294;65.988;29.172;2023-02-13T08:54:54;96236.25;;;-2.86;100.00
73103;BME280;61294;65.988;29.172;2023-02-13T08:57:20;96245.78;;;-2.78;100.00
73103;BME280;61294;65.988;29.172;2023-02-13T08:59:46;96257.03;;;-2.69;100.00
73103;BME280;61294;65.988;29.172;2023-02-13T09:02:12;96232.03;;;-2.77;100.00
73103;BME280;61294;65.988;29.172;2023-02-13T09:04:39;96257.06;;;-2.63;100.00
73103;BME280;61294;65.988;29.172;2023-02-13T09:07:04;96240.75;;;-2.64;100.00
73103;BME280;61294;65.988;29.172;2023-02-13T09:09:30;96256.22;;;-2.62;100.00
73103;BME280;61294;65.988;29.172;2023-02-13T09:11:56;96251.09;;;-2.61;100.00
73103;BME280;61294;65.988;29.172;2023-02-13T09:14:25;96239.00;;;-2.69;100.00
73103;BME280;61294;65.988;29.172;2023-02-13T09:16:51;96241.59;;;-2.65;100.00
73103;BME280;61294;65.988;29.172;2023-02-13T09:19:17;96265.75;;;-2.50;100.00
73103;BME280;61294;65.988;29.172;2023-02-13T09:21:42;96246.88;;;-2.51;100.00
73103;BME280;61294;65.988;29.172;2023-02-13T09:24:09;96252.88;;;-2.49;100.00
73103;BME280;61294;65.988;29.172;2023-02-13T09:26:35;96262.34;;;-2.48;100.00
73103;BME280;61294;65.988;29.172;2023-02-13T09:29:01;96246.88;;;-2.49;100.00
73103;BME280;61294;65.988;29.172;2023-02-13T09:31:26;96226.16;;;-2.58;100.00
73103;BME280;61294;65.988;29.172;2023-02-13T09:33:53;96233.06;;;-2.57;100.00
73103;BME280;61294;65.988;29.172;2023-02-13T09:36:20;96254.63;;;-2.46;100.00
73103;BME280;61294;65.988;29.172;2023-02-13T09:38:54;96229.59;;;-2.58;100.00
73103;BME280;61294;65.988;29.172;2023-02-13T09:41:24;96244.34;;;-2.41;100.00
73103;BME280;61294;65.988;29.172;2023-02-13T09:44:18;96256.53;;;-2.22;100.00
73103;BME280;61294;65.988;29.172;2023-02-13T09:47:28;96255.78;;;-2.02;99.94
73103;BME280;61294;65.988;29.172;2023-02-13T09:50:16;96264.38;;;-2.03;98.62
73103;BME280;61294;65.988;29.172;2023-02-13T09:52:44;96262.56;;;-2.18;98.28
73103;BME280;61294;65.988;29.172;2023-02-13T09:55:20;96264.28;;;-2.16;98.18
73103;BME280;61294;65.988;29.172;2023-02-13T10:00:24;96262.03;;;-1.60;98.42
73103;BME280;61294;65.988;29.172;2023-02-13T10:11:18;96266.03;;;-2.16;100.00
73103;BME280;61294;65.988;29.172;2023-02-13T10:16:28;96264.25;;;-2.23;100.00
73103;BME280;61294;65.988;29.172;2023-02-13T10:21:57;96276.44;;;-1.99;100.00
73103;BME280;61294;65.988;29.172;2023-02-13T10:27:01;96298.06;;;-1.80;100.00
73103;BME280;61294;65.988;29.172;2023-02-13T10:32:45;96295.50;;;-1.77;100.00
73103;BME280;61294;65.988;29.172;2023-02-13T10:35:31;96314.50;;;-1.64;100.00
73103;BME280;61294;65.988;29.172;2023-02-13T10:37:59;96286.00;;;-1.80;100.00
73103;BME280;61294;65.988;29.172;2023-02-13T10:40:31;96282.50;;;-1.94;100.00
73103;BME280;61294;65.988;29.172;2023-02-13T10:43:07;96312.56;;;-1.99;100.00
73103;BME280;61294;65.988;29.172;2023-02-13T10:48:43;96340.88;;;-2.05;100.00
73103;BME280;61294;65.988;29.172;2023-02-13T10:56:24;96335.81;;;-1.98;100.00
73103;BME280;61294;65.988;29.172;2023-02-13T10:59:28;96344.47;;;-1.89;100.00
73103;BME280;61294;65.988;29.172;2023-02-13T11:01:58;96350.53;;;-1.78;100.00
73103;BME280;61294;65.988;29.172;2023-02-13T11:04:25;96336.69;;;-1.91;100.00
73103;BME280;61294;65.988;29.172;2023-02-13T11:07:04;96354.84;;;-1.77;100.00
73103;BME280;61294;65.988;29.172;2023-02-13T11:09:40;96365.25;;;-1.68;100.00
73103;BME280;61294;65.988;29.172;2023-02-13T11:12:24;96378.22;;;-1.56;100.00
73103;BME280;61294;65.988;29.172;2023-02-13T11:15:03;96348.94;;;-1.65;100.00
73103;BME280;61294;65.988;29.172;2023-02-13T11:17:31;96398.09;;;-1.47;100.00
73103;BME280;61294;65.988;29.172;2023-02-13T11:20:03;96400.69;;;-1.44;100.00
73103;BME280;61294;65.988;29.172;2023-02-13T11:22:39;96412.81;;;-1.33;100.00
73103;BME280;61294;65.988;29.172;2023-02-13T11:25:21;96409.41;;;-1.23;100.00
73103;BME280;61294;65.988;29.172;2023-02-13T11:27:50;96421.59;;;-1.00;100.00
73103;BME280;61294;65.988;29.172;2023-02-13T11:30:35;96429.34;;;-0.96;100.00
73103;BME280;61294;65.988;29.172;2023-02-13T11:33:06;96430.19;;;-1.05;100.00
73103;BME280;61294;65.988;29.172;2023-02-13T11:35:44;96434.50;;;-1.03;100.00
73103;BME280;61294;65.988;29.172;2023-02-13T11:40:41;96438.00;;;-0.91;100.00
73103;BME280;61294;65.988;29.172;2023-02-13T11:43:24;96437.25;;;-0.71;100.00
73103;BME280;61294;65.988;29.172;2023-02-13T11:46:05;96448.28;;;-1.00;100.00
73103;BME280;61294;65.988;29.172;2023-02-13T11:48:31;96461.25;;;-0.94;100.00
73103;BME280;61294;65.988;29.172;2023-02-13T11:50:57;96439.75;;;-0.90;100.00
73103;BME280;61294;65.988;29.172;2023-02-13T11:53:30;96464.69;;;-0.92;100.00
73103;BME280;61294;65.988;29.172;2023-02-13T11:56:03;96477.66;;;-0.87;100.00
73103;BME280;61294;65.988;29.172;2023-02-13T11:58:29;96446.50;;;-1.12;100.00
73103;BME280;61294;65.988;29.172;2023-02-13T12:04:02;96490.53;;;-0.98;100.00
73103;BME280;61294;65.988;29.172;2023-02-13T12:06:29;96503.44;;;-0.99;100.00
73103;BME280;61294;65.988;29.172;2023-02-13T12:08:55;96519.78;;;-1.00;100.00
73103;BME280;61294;65.988;29.172;2023-02-13T12:13:55;96525.75;;;-1.14;100.00
73103;BME280;61294;65.988;29.172;2023-02-13T12:16:33;96538.69;;;-1.09;100.00
73103;BME280;61294;65.988;29.172;2023-02-13T12:19:05;96537.84;;;-1.08;100.00
73103;BME280;61294;65.988;29.172;2023-02-13T12:21:43;96537.97;;;-0.90;100.00
73103;BME280;61294;65.988;29.172;2023-02-13T12:29:45;96551.06;;;-0.57;100.00
73103;BME280;61294;65.988;29.172;2023-02-13T12:46:04;96587.03;;;-0.94;100.00
73103;BME280;61294;65.988;29.172;2023-02-13T13:00:08;96625.59;;;-1.19;100.00
73103;BME280;61294;65.988;29.172;2023-02-13T13:03:00;96623.78;;;-1.29;100.00
73103;BME280;61294;65.988;29.172;2023-02-13T13:06:01;96638.34;;;-1.34;100.00
73103;BME280;61294;65.988;29.172;2023-02-13T13:14:26;96647.81;;;-1.36;100.00
73103;BME280;61294;65.988;29.172;2023-02-13T13:27:43;96655.59;;;-1.35;100.00
73103;BME280;61294;65.988;29.172;2023-02-13T13:30:24;96700.63;;;-1.08;100.00
73103;BME280;61294;65.988;29.172;2023-02-13T13:35:38;96702.34;;;-1.09;100.00
73103;BME280;61294;65.988;29.172;2023-02-13T13:41:13;96709.19;;;-1.14;100.00
73103;BME280;61294;65.988;29.172;2023-02-13T13:52:30;96710.84;;;-1.19;100.00
73103;BME280;61294;65.988;29.172;2023-02-13T13:54:58;96717.84;;;-1.09;100.00
73103;BME280;61294;65.988;29.172;2023-02-13T13:57:26;96748.97;;;-0.98;100.00
73103;BME280;61294;65.988;29.172;2023-02-13T14:02:43;96766.25;;;-0.92;100.00
73103;BME280;61294;65.988;29.172;2023-02-13T14:05:25;96775.69;;;-0.96;100.00
73103;BME280;61294;65.988;29.172;2023-02-13T14:08:00;96775.69;;;-0.94;100.00
73103;BME280;61294;65.988;29.172;2023-02-13T14:20:42;96792.97;;;-0.90;100.00
73103;BME280;61294;65.988;29.172;2023-02-13T14:31:35;96809.28;;;-0.94;100.00
73103;BME280;61294;65.988;29.172;2023-02-13T14:36:38;96824.03;;;-0.87;100.00
73103;BME280;61294;65.988;29.172;2023-02-13T14:39:30;96825.78;;;-0.84;100.00
73103;BME280;61294;65.988;29.172;2023-02-13T14:41:59;96817.03;;;-0.94;100.00
73103;BME280;61294;65.988;29.172;2023-02-13T14:44:47;96830.94;;;-0.86;100.00
73103;BME280;61294;65.988;29.172;2023-02-13T14:47:21;96852.63;;;-0.72;100.00
73103;BME280;61294;65.988;29.172;2023-02-13T14:49:49;96855.28;;;-0.67;100.00
73103;BME280;61294;65.988;29.172;2023-02-13T14:52:22;96863.91;;;-0.65;100.00
73103;BME280;61294;65.988;29.172;2023-02-13T14:55:00;96874.25;;;-0.66;100.00
73103;BME280;61294;65.988;29.172;2023-02-13T14:57:34;96881.16;;;-0.67;100.00
73103;BME280;61294;65.988;29.172;2023-02-13T15:06:34;96891.44;;;-0.70;100.00
73103;BME280;61294;65.988;29.172;2023-02-13T15:09:05;96908.91;;;-0.50;100.00
73103;BME280;61294;65.988;29.172;2023-02-13T15:11:41;96902.75;;;-0.60;100.00
73103;BME280;61294;65.988;29.172;2023-02-13T15:14:29;96890.53;;;-0.74;100.00
73103;BME280;61294;65.988;29.172;2023-02-13T15:19:24;96941.63;;;-0.54;100.00
73103;BME280;61294;65.988;29.172;2023-02-13T15:21:59;96956.31;;;-0.50;100.00
73103;BME280;61294;65.988;29.172;2023-02-13T15:24:30;96961.44;;;-0.55;100.00
73103;BME280;61294;65.988;29.172;2023-02-13T15:27:01;96952.00;;;-0.51;100.00
73103;BME280;61294;65.988;29.172;2023-02-13T15:29:28;96947.59;;;-0.60;100.00
73103;BME280;61294;65.988;29.172;2023-02-13T15:31:55;96978.75;;;-0.49;100.00
73103;BME280;61294;65.988;29.172;2023-02-13T15:34:25;96961.31;;;-0.65;100.00
73103;BME280;61294;65.988;29.172;2023-02-13T15:36:51;96986.50;;;-0.50;100.00
73103;BME280;61294;65.988;29.172;2023-02-13T15:39:23;96990.78;;;-0.54;100.00
73103;BME280;61294;65.988;29.172;2023-02-13T15:41:52;97009.78;;;-0.49;100.00
73103;BME280;61294;65.988;29.172;2023-02-13T15:44:22;97025.31;;;-0.49;100.00
73103;BME280;61294;65.988;29.172;2023-02-13T15:46:50;97018.34;;;-0.53;100.00
73103;BME280;61294;65.988;29.172;2023-02-13T15:49:22;97043.44;;;-0.47;100.00
73103;BME280;61294;65.988;29.172;2023-02-13T15:51:49;97059.72;;;-0.56;100.00